Time;durP1;ratioP1;P1;durP2;ratioP2;P2;SDS_P1;SDS_P2;PMS_P1;PMS_P2;Temp;Humidity;BMP_temperature;BMP_pressure;BME280_temperature;BME280_humidity;BME280_pressure;Samples;Min_cycle;Max_cycle;Signal;HPM_P1;HPM_P2
2023/03/12 00:02:15;;;;;;;1.40;1.15;;;1.10;99.90;;;;;;5129471;28;20040;-69
2023/03/12 00:04:46;;;;;;;2.17;1.23;;;1.00;99.90;;;;;;5108461;28;20062;-70
2023/03/12 00:07:23;;;;;;;2.45;1.17;;;1.00;99.90;;;;;;5105209;28;20647;-69
2023/03/12 00:09:57;;;;;;;3.95;1.70;;;1.00;99.90;;;;;;5121663;28;20053;-67
2023/03/12 00:12:33;;;;;;;1.83;1.38;;;0.90;99.90;;;;;;5099758;28;20042;-68
2023/03/12 00:15:06;;;;;;;2.40;1.30;;;0.80;99.90;;;;;;5096001;28;20047;-69
2023/03/12 00:17:39;;;;;;;2.67;1.40;;;0.80;99.90;;;;;;5144494;28;20033;-69
2023/03/12 00:20:14;;;;;;;3.60;1.40;;;0.70;99.90;;;;;;5127411;28;20047;-70
2023/03/12 00:22:48;;;;;;;2.80;1.30;;;0.60;99.90;;;;;;5128537;28;20046;-67
2023/03/12 00:25:20;;;;;;;2.00;1.33;;;0.60;99.90;;;;;;5082494;28;20605;-70
2023/03/12 00:27:56;;;;;;;2.20;1.60;;;0.60;99.90;;;;;;5103703;28;20343;-69
2023/03/12 00:30:28;;;;;;;1.48;1.08;;;0.50;99.90;;;;;;5112217;28;20042;-69
2023/03/12 00:32:59;;;;;;;5.80;1.42;;;0.60;99.90;;;;;;5111033;28;20467;-69
2023/03/12 00:35:31;;;;;;;2.78;1.20;;;0.60;99.90;;;;;;5119702;28;20285;-68
2023/03/12 00:38:04;;;;;;;3.88;1.45;;;0.70;99.90;;;;;;5094946;28;20042;-69
2023/03/12 00:40:38;;;;;;;2.47;1.35;;;0.70;99.90;;;;;;5103422;28;20058;-68
2023/03/12 00:43:11;;;;;;;1.90;1.02;;;0.60;99.90;;;;;;5135098;28;20532;-69
2023/03/12 00:45:47;;;;;;;3.80;1.48;;;0.70;99.90;;;;;;5083646;28;20059;-69
2023/03/12 00:48:21;;;;;;;1.45;1.20;;;0.70;99.90;;;;;;5118664;28;20042;-71
2023/03/12 00:50:52;;;;;;;1.90;1.40;;;0.70;99.90;;;;;;5104068;28;20034;-70
2023/03/12 00:53:24;;;;;;;3.88;1.75;;;0.70;99.90;;;;;;5111946;28;20034;-70
2023/03/12 00:55:55;;;;;;;3.03;1.13;;;0.70;99.90;;;;;;5118221;28;20058;-69
2023/03/12 00:58:27;;;;;;;2.30;1.20;;;0.60;1.00;;;;;;5118493;28;20602;-70
2023/03/12 01:03:46;;;;;;;2.83;1.35;;;0.70;1.00;;;;;;5108366;26;20093;-70
2023/03/12 01:06:20;;;;;;;2.38;1.65;;;0.70;1.00;;;;;;5104960;28;20051;-70
2023/03/12 01:08:54;;;;;;;2.57;1.40;;;0.60;1.00;;;;;;5113288;28;20041;-69
2023/03/12 01:11:31;;;;;;;1.92;1.15;;;0.60;1.00;;;;;;5081621;29;20249;-69
2023/03/12 01:14:05;;;;;;;2.58;1.38;;;0.60;99.90;;;;;;5117572;28;20046;-71
2023/03/12 01:16:39;;;;;;;3.08;1.63;;;0.60;99.90;;;;;;5079164;28;20357;-69
2023/03/12 01:19:12;;;;;;;1.75;1.10;;;0.50;99.90;;;;;;5118550;28;20049;-69
2023/03/12 01:21:46;;;;;;;2.75;1.52;;;0.50;99.90;;;;;;5097265;28;20053;-71
2023/03/12 01:24:18;;;;;;;2.97;1.98;;;0.50;1.00;;;;;;5113379;28;20354;-70
2023/03/12 01:26:53;;;;;;;2.30;1.50;;;0.40;99.90;;;;;;5106095;28;20042;-69
2023/03/12 01:29:24;;;;;;;3.25;1.30;;;0.40;1.00;;;;;;5116979;28;20058;-70
2023/03/12 01:31:56;;;;;;;2.33;1.42;;;0.40;99.90;;;;;;5131259;28;20041;-71
2023/03/12 01:34:29;;;;;;;6.05;1.30;;;0.40;99.90;;;;;;5134778;28;20335;-68
2023/03/12 01:37:04;;;;;;;5.10;1.30;;;0.50;1.00;;;;;;5118248;28;20031;-71
2023/03/12 01:39:38;;;;;;;1.70;1.25;;;0.50;1.00;;;;;;5110894;29;20031;-69
2023/03/12 01:42:10;;;;;;;1.40;1.30;;;0.50;1.00;;;;;;5065803;29;20047;-68
2023/03/12 01:45:02;;;;;;;3.08;1.15;;;0.60;1.00;;;;;;5111780;28;20049;-68
2023/03/12 01:47:47;;;;;;;2.33;1.52;;;0.60;1.00;;;;;;5101379;28;20232;-70
2023/03/12 01:50:18;;;;;;;2.83;1.92;;;0.60;1.00;;;;;;5103388;28;20046;-70
2023/03/12 01:52:51;;;;;;;6.93;1.63;;;0.70;1.00;;;;;;5117671;28;20047;-68
2023/03/12 01:55:23;;;;;;;2.65;1.58;;;0.80;1.00;;;;;;5117777;28;20041;-70
2023/03/12 01:57:57;;;;;;;2.95;1.20;;;0.80;1.00;;;;;;5101650;28;20053;-68
2023/03/12 02:00:32;;;;;;;4.05;1.50;;;0.70;1.00;;;;;;5099512;28;20173;-70
2023/03/12 02:03:12;;;;;;;2.97;1.67;;;0.60;1.00;;;;;;5134546;28;20041;-71
2023/03/12 02:05:57;;;;;;;2.50;1.92;;;0.60;1.00;;;;;;5090886;28;20255;-70
2023/03/12 02:08:29;;;;;;;1.73;1.63;;;0.50;1.00;;;;;;5117072;28;20041;-68
2023/03/12 02:11:00;;;;;;;2.45;1.52;;;0.40;1.00;;;;;;5081594;29;20043;-69
2023/03/12 02:13:36;;;;;;;1.95;1.40;;;0.40;11.80;;;;;;5100676;28;20030;-70
2023/03/12 02:16:09;;;;;;;2.88;1.23;;;0.40;99.90;;;;;;5098679;28;20312;-69
2023/03/12 02:18:43;;;;;;;1.73;1.58;;;0.40;99.90;;;;;;5083411;28;20047;-69
2023/03/12 02:21:26;;;;;;;2.22;1.10;;;0.40;99.90;;;;;;5100247;28;20051;-66
2023/03/12 02:24:13;;;;;;;1.75;1.15;;;0.40;1.00;;;;;;5095636;29;20570;-67
2023/03/12 02:26:45;;;;;;;3.00;1.35;;;0.30;1.00;;;;;;5106184;28;20335;-69
2023/03/12 02:29:19;;;;;;;1.95;1.30;;;0.30;99.90;;;;;;5107334;28;20540;-70
2023/03/12 02:31:56;;;;;;;4.38;1.70;;;0.30;99.90;;;;;;5098001;28;20417;-71
2023/03/12 02:34:31;;;;;;;3.05;1.70;;;0.30;1.00;;;;;;5116469;28;20535;-67
2023/03/12 02:37:02;;;;;;;3.15;1.48;;;0.30;99.90;;;;;;5132216;28;20062;-69
2023/03/12 02:39:35;;;;;;;1.60;1.27;;;0.30;99.90;;;;;;5115357;28;20051;-69
2023/03/12 02:42:10;;;;;;;2.97;1.67;;;0.20;99.90;;;;;;5084010;28;20043;-67
2023/03/12 02:44:44;;;;;;;2.55;1.50;;;0.10;99.90;;;;;;5083018;28;20342;-68
2023/03/12 02:47:16;;;;;;;2.20;1.30;;;0.10;1.00;;;;;;5097309;28;20072;-69
2023/03/12 02:49:56;;;;;;;2.33;1.58;;;0.00;1.00;;;;;;5114602;28;20042;-67
2023/03/12 02:52:34;;;;;;;3.13;1.52;;;-0.10;1.00;;;;;;5118741;28;20056;-66
2023/03/12 02:55:09;;;;;;;1.67;1.10;;;-0.10;99.90;;;;;;5099200;28;20046;-71
2023/03/12 02:57:42;;;;;;;1.88;1.05;;;-0.10;99.90;;;;;;5113514;28;20488;-69
2023/03/12 03:00:15;;;;;;;2.60;1.58;;;-0.20;1.00;;;;;;5098974;28;20046;-70
2023/03/12 03:02:47;;;;;;;3.42;1.38;;;-0.20;43.30;;;;;;5123093;28;20476;-69
2023/03/12 03:05:23;;;;;;;2.67;1.60;;;-0.20;99.90;;;;;;5071024;29;20470;-68
2023/03/12 03:07:55;;;;;;;2.25;1.30;;;-0.20;99.90;;;;;;5109062;28;20046;-68
2023/03/12 03:10:26;;;;;;;1.83;1.35;;;-0.30;1.00;;;;;;5114374;28;20045;-69
2023/03/12 03:12:58;;;;;;;2.78;1.30;;;-0.30;99.90;;;;;;5116364;28;20042;-70
2023/03/12 03:15:31;;;;;;;2.10;1.20;;;-0.40;1.00;;;;;;5133195;28;20049;-69
2023/03/12 03:18:03;;;;;;;2.03;1.65;;;-0.50;1.00;;;;;;5084592;28;20054;-69
2023/03/12 03:20:36;;;;;;;1.20;1.10;;;-0.50;1.00;;;;;;5116344;28;20064;-69
2023/03/12 03:23:07;;;;;;;2.85;1.08;;;-0.50;45.10;;;;;;5133407;28;20030;-67
2023/03/12 03:25:44;;;;;;;1.27;0.95;;;-0.60;1.00;;;;;;5099086;28;20292;-68
2023/03/12 03:28:17;;;;;;;2.15;1.30;;;-0.70;56.50;;;;;;5100684;28;20040;-69
2023/03/12 03:30:54;;;;;;;2.28;1.38;;;-0.70;99.90;;;;;;5112164;28;20042;-69
2023/03/12 03:33:32;;;;;;;1.80;1.20;;;-0.70;99.90;;;;;;5077991;29;20034;-69
2023/03/12 03:36:13;;;;;;;2.38;1.30;;;-0.60;99.90;;;;;;5092913;29;20046;-71
2023/03/12 03:38:48;;;;;;;2.70;1.55;;;-0.70;99.90;;;;;;5079625;29;20478;-68
2023/03/12 03:41:25;;;;;;;1.30;1.15;;;-0.60;99.90;;;;;;5082279;28;20367;-69
2023/03/12 03:43:58;;;;;;;1.30;1.20;;;-0.60;99.90;;;;;;5099437;28;20042;-68
2023/03/12 03:46:29;;;;;;;2.75;1.42;;;-0.60;99.90;;;;;;5111782;28;20039;-68
2023/03/12 03:49:07;;;;;;;1.73;1.30;;;-0.60;99.90;;;;;;5114376;28;20720;-69
2023/03/12 03:51:41;;;;;;;2.25;1.13;;;-0.50;99.90;;;;;;5101155;29;20055;-68
2023/03/12 03:54:12;;;;;;;;;;;-0.50;99.90;;;;;;5108226;28;20056;-70
2023/03/12 03:56:45;;;;;;;3.03;1.17;;;-0.40;99.90;;;;;;5128093;28;19922;-69
2023/03/12 03:59:18;;;;;;;1.35;1.13;;;-0.40;66.80;;;;;;5131284;28;20039;-69
2023/03/12 04:01:52;;;;;;;2.22;1.30;;;-0.40;99.90;;;;;;5126789;28;20254;-69
2023/03/12 04:04:27;;;;;;;2.72;1.90;;;-0.40;92.50;;;;;;5090441;28;20381;-68
2023/03/12 04:06:59;;;;;;;2.10;1.30;;;-0.50;99.90;;;;;;5099691;28;20039;-67
2023/03/12 04:09:32;;;;;;;4.43;1.52;;;-0.50;99.90;;;;;;5131286;28;20034;-70
2023/03/12 04:12:03;;;;;;;2.42;1.02;;;-0.60;99.90;;;;;;5114154;28;20051;-70
2023/03/12 04:14:39;;;;;;;3.58;1.50;;;-0.60;99.90;;;;;;5131101;28;20030;-70
2023/03/12 04:17:14;;;;;;;4.05;1.50;;;-0.70;99.90;;;;;;5098576;28;20043;-69
2023/03/12 04:19:46;;;;;;;2.42;1.55;;;-0.70;99.90;;;;;;5112821;28;20037;-68
2023/03/12 04:22:17;;;;;;;6.18;1.52;;;-0.70;1.00;;;;;;5116841;28;20057;-67
2023/03/12 04:24:49;;;;;;;2.95;1.20;;;-0.80;1.00;;;;;;5102094;28;20034;-69
2023/03/12 04:27:20;;;;;;;3.60;1.33;;;-0.80;1.00;;;;;;5101068;28;20194;-70
2023/03/12 04:29:53;;;;;;;1.50;1.40;;;-0.70;1.00;;;;;;5101247;28;20226;-69
2023/03/12 04:32:26;;;;;;;2.65;1.23;;;-0.80;1.00;;;;;;5116841;28;20027;-70
2023/03/12 04:34:58;;;;;;;4.18;1.67;;;-0.90;1.00;;;;;;5116432;28;20034;-68
2023/03/12 04:37:32;;;;;;;3.83;1.70;;;-0.80;1.00;;;;;;5101529;28;20050;-70
2023/03/12 04:40:06;;;;;;;;;;;-1.00;1.00;;;;;;5095333;28;20035;-68
2023/03/12 04:42:39;;;;;;;3.15;1.70;;;-1.00;1.00;;;;;;5117584;28;20172;-68
2023/03/12 04:45:11;;;;;;;2.15;1.45;;;-1.10;1.00;;;;;;5081429;28;20047;-70
2023/03/12 04:47:45;;;;;;;2.17;1.33;;;-1.10;1.00;;;;;;5135545;28;20030;-67
2023/03/12 04:50:25;;;;;;;2.17;1.42;;;-1.20;1.00;;;;;;5087829;28;20043;-70
2023/03/12 04:52:56;;;;;;;2.55;1.70;;;-1.40;1.00;;;;;;5119124;28;20038;-69
2023/03/12 04:55:28;;;;;;;1.88;1.52;;;-1.50;1.00;;;;;;5102458;28;20082;-69
2023/03/12 04:58:02;;;;;;;2.08;1.60;;;-1.60;1.00;;;;;;5101127;28;20042;-68
2023/03/12 05:00:34;;;;;;;1.92;1.17;;;-1.60;1.00;;;;;;5083692;28;20043;-67
2023/03/12 05:03:05;;;;;;;2.20;1.67;;;-1.60;1.00;;;;;;5098122;28;20038;-70
2023/03/12 05:05:37;;;;;;;1.48;1.27;;;-1.60;1.00;;;;;;5074523;28;20053;-68
2023/03/12 05:08:11;;;;;;;2.75;1.40;;;-1.70;1.00;;;;;;5100785;28;20051;-70
2023/03/12 05:10:46;;;;;;;1.90;1.60;;;-1.80;1.00;;;;;;5115973;28;20170;-67
2023/03/12 05:13:23;;;;;;;2.42;1.60;;;-1.80;1.00;;;;;;5116516;28;20067;-71
2023/03/12 05:15:57;;;;;;;5.95;1.38;;;-1.80;1.00;;;;;;5096003;28;20046;-70
2023/03/12 05:18:31;;;;;;;3.78;1.95;;;-1.90;1.00;;;;;;5117098;28;20051;-72
2023/03/12 05:21:13;;;;;;;1.77;1.42;;;-2.00;1.00;;;;;;5118150;28;20152;-71
2023/03/12 05:23:45;;;;;;;2.60;1.33;;;-2.00;1.40;;;;;;5087153;28;20049;-68
2023/03/12 05:26:32;;;;;;;3.97;2.08;;;-1.90;14.10;;;;;;5100485;28;20059;-71
2023/03/12 05:29:05;;;;;;;3.72;1.58;;;-1.90;33.50;;;;;;5102032;28;20039;-71
2023/03/12 05:31:37;;;;;;;2.22;1.33;;;-2.00;23.90;;;;;;5114733;28;20027;-70
2023/03/12 05:34:14;;;;;;;1.40;1.30;;;-2.10;50.40;;;;;;5118473;28;20558;-69
2023/03/12 05:36:48;;;;;;;2.37;1.87;;;-2.10;92.20;;;;;;5102187;28;20150;-70
2023/03/12 05:39:21;;;;;;;1.58;1.27;;;-2.10;93.80;;;;;;5100852;28;20043;-68
2023/03/12 05:41:56;;;;;;;1.60;1.30;;;-2.00;65.20;;;;;;5093362;28;20034;-71
2023/03/12 05:44:30;;;;;;;6.10;2.00;;;-1.90;60.00;;;;;;5117615;28;20035;-69
2023/03/12 05:47:01;;;;;;;;;;;-1.60;23.50;;;;;;5114514;28;20141;-69
2023/03/12 05:49:36;;;;;;;1.20;1.10;;;-1.50;10.60;;;;;;5095206;28;19922;-70
2023/03/12 05:52:08;;;;;;;1.95;1.42;;;-1.60;1.00;;;;;;5098994;28;20051;-69
2023/03/12 05:54:40;;;;;;;3.78;1.55;;;-1.40;1.00;;;;;;5112673;28;21521;-70
2023/03/12 05:57:12;;;;;;;3.83;2.38;;;-1.40;1.00;;;;;;5110096;28;20581;-69
2023/03/12 05:59:46;;;;;;;4.72;2.10;;;-1.30;1.00;;;;;;5131564;28;20023;-69
2023/03/12 06:02:17;;;;;;;;;;;-1.20;1.00;;;;;;5098014;28;20618;-69
2023/03/12 06:04:48;;;;;;;1.70;1.40;;;-0.90;1.00;;;;;;5106273;28;20241;-71
2023/03/12 06:07:22;;;;;;;2.50;1.65;;;-0.80;1.00;;;;;;5120215;28;20043;-71
2023/03/12 06:09:54;;;;;;;6.72;2.10;;;-0.70;1.00;;;;;;5115813;28;20041;-69
2023/03/12 06:12:25;;;;;;;2.53;1.98;;;-0.50;1.00;;;;;;5112873;28;20046;-69
2023/03/12 06:14:59;;;;;;;2.45;2.00;;;-0.20;1.00;;;;;;5126128;28;20043;-70
2023/03/12 06:17:31;;;;;;;2.97;2.28;;;-0.10;1.00;;;;;;5114824;28;20043;-72
2023/03/12 06:20:03;;;;;;;7.38;2.22;;;0.20;1.00;;;;;;5112546;28;20042;-69
2023/03/12 06:22:35;;;;;;;4.70;1.77;;;0.40;1.00;;;;;;5089725;28;20049;-68
2023/03/12 06:25:09;;;;;;;3.38;1.92;;;0.50;1.00;;;;;;5100605;28;20047;-71
2023/03/12 06:27:44;;;;;;;3.08;2.08;;;0.60;1.00;;;;;;5114093;28;20038;-73
2023/03/12 06:30:19;;;;;;;3.85;1.88;;;0.80;99.90;;;;;;5111733;28;20038;-69
2023/03/12 06:32:50;;;;;;;3.30;1.98;;;1.10;85.80;;;;;;5082719;28;20053;-71
2023/03/12 06:35:25;;;;;;;2.92;2.03;;;1.30;99.90;;;;;;5081831;28;20714;-71
2023/03/12 06:37:59;;;;;;;;;;;1.40;1.00;;;;;;5093834;28;20529;-68
2023/03/12 06:40:30;;;;;;;2.05;1.60;;;1.60;1.00;;;;;;5098493;28;19925;-71
2023/03/12 06:43:02;;;;;;;2.03;1.83;;;1.70;99.90;;;;;;5116752;28;20672;-68
2023/03/12 06:45:36;;;;;;;2.75;2.15;;;1.90;99.90;;;;;;5081380;28;20057;-70
2023/03/12 06:48:07;;;;;;;2.65;2.03;;;2.00;45.10;;;;;;5081147;29;20058;-68
2023/03/12 06:50:39;;;;;;;2.50;1.77;;;2.00;99.90;;;;;;5124909;28;20491;-70
2023/03/12 06:53:11;;;;;;;3.05;1.80;;;2.00;99.90;;;;;;5107175;28;20046;-68
2023/03/12 06:55:46;;;;;;;3.42;1.90;;;2.10;99.90;;;;;;5132377;28;20042;-70
2023/03/12 06:58:18;;;;;;;2.25;1.60;;;2.10;99.90;;;;;;5098966;28;20341;-67
2023/03/12 07:00:54;;;;;;;2.15;1.75;;;2.10;99.90;;;;;;5109030;28;20057;-72
2023/03/12 07:03:29;;;;;;;2.78;1.83;;;2.20;99.90;;;;;;5098650;28;20046;-71
2023/03/12 07:06:00;;;;;;;5.28;2.03;;;2.30;99.90;;;;;;5082649;28;20065;-69
2023/03/12 07:08:34;;;;;;;2.35;2.00;;;2.30;99.90;;;;;;5113970;28;20095;-72
2023/03/12 07:11:07;;;;;;;4.45;2.10;;;2.40;99.90;;;;;;5116226;28;20046;-70
2023/03/12 07:13:41;;;;;;;4.15;1.90;;;2.70;99.90;;;;;;5100611;28;20050;-67
2023/03/12 07:16:16;;;;;;;2.22;2.03;;;2.70;99.90;;;;;;5080498;28;20046;-69
2023/03/12 07:18:47;;;;;;;3.53;1.95;;;2.70;99.90;;;;;;5093134;28;20042;-71
2023/03/12 07:21:22;;;;;;;3.20;2.40;;;2.70;99.90;;;;;;5132959;28;20221;-72
2023/03/12 07:23:54;;;;;;;3.20;2.00;;;2.80;99.90;;;;;;5116805;28;20045;-71
2023/03/12 07:26:26;;;;;;;3.10;1.60;;;2.80;99.90;;;;;;5097531;28;20046;-71
2023/03/12 07:28:57;;;;;;;2.70;2.00;;;2.90;99.90;;;;;;5108812;28;20047;-69
2023/03/12 07:31:33;;;;;;;4.95;1.77;;;3.10;99.90;;;;;;5101284;28;20049;-71
2023/03/12 07:34:07;;;;;;;1.90;1.60;;;3.10;99.90;;;;;;5105212;28;20058;-72
2023/03/12 07:36:38;;;;;;;2.78;2.10;;;3.10;99.90;;;;;;5110837;28;20074;-71
2023/03/12 07:39:12;;;;;;;1.70;1.40;;;3.50;99.90;;;;;;5114455;28;20041;-72
2023/03/12 07:41:45;;;;;;;4.55;2.17;;;3.60;99.90;;;;;;5096304;28;20057;-72
2023/03/12 07:44:16;;;;;;;1.77;1.15;;;3.70;99.90;;;;;;5095889;28;20323;-72
2023/03/12 07:46:48;;;;;;;3.15;1.30;;;3.80;99.90;;;;;;5080362;28;20043;-71
2023/03/12 07:49:20;;;;;;;2.33;1.50;;;3.80;99.90;;;;;;5097034;28;20470;-72
2023/03/12 07:51:54;;;;;;;2.45;1.40;;;3.90;99.90;;;;;;5112669;28;20041;-70
2023/03/12 07:54:29;;;;;;;2.58;1.73;;;3.90;99.90;;;;;;5084018;28;20509;-70
2023/03/12 07:57:04;;;;;;;1.95;1.67;;;3.80;99.90;;;;;;5102258;28;20035;-73
2023/03/12 07:59:36;;;;;;;3.13;1.40;;;3.60;99.90;;;;;;5117838;28;20051;-72
2023/03/12 08:02:12;;;;;;;2.45;1.63;;;3.70;99.90;;;;;;5101200;28;20051;-73
2023/03/12 08:04:48;;;;;;;2.22;1.85;;;3.80;99.90;;;;;;5102973;28;20034;-69
2023/03/12 08:07:22;;;;;;;2.08;1.67;;;4.30;99.90;;;;;;5107675;28;20497;-71
2023/03/12 08:09:53;;;;;;;2.63;1.73;;;4.30;99.90;;;;;;5129825;28;20090;-71
2023/03/12 08:12:30;;;;;;;3.45;1.30;;;4.50;99.90;;;;;;5084266;29;20582;-70
2023/03/12 08:15:07;;;;;;;2.92;1.25;;;4.40;99.90;;;;;;5101665;28;20046;-72
2023/03/12 08:17:41;;;;;;;1.65;1.40;;;4.40;99.90;;;;;;5103160;28;20050;-71
2023/03/12 08:20:16;;;;;;;1.92;1.63;;;4.40;99.90;;;;;;5107226;28;20378;-71
2023/03/12 08:22:50;;;;;;;4.22;1.30;;;4.70;99.90;;;;;;5088846;28;20046;-71
2023/03/12 08:25:24;;;;;;;5.40;1.60;;;4.60;99.90;;;;;;5087134;28;20046;-70
2023/03/12 08:27:55;;;;;;;1.55;1.42;;;4.70;99.90;;;;;;5119027;28;20570;-71
2023/03/12 08:30:27;;;;;;;4.85;1.48;;;4.50;99.90;;;;;;5111284;28;20049;-70
2023/03/12 08:32:59;;;;;;;4.22;1.10;;;4.80;99.90;;;;;;5117477;28;20611;-69
2023/03/12 08:35:32;;;;;;;2.58;1.55;;;4.90;99.90;;;;;;5103902;28;20111;-71
2023/03/12 08:38:06;;;;;;;2.15;1.25;;;5.00;99.90;;;;;;5118677;28;20049;-71
2023/03/12 08:40:43;;;;;;;3.70;1.75;;;5.00;99.90;;;;;;5118565;28;20054;-69
2023/03/12 08:43:17;;;;;;;1.75;1.30;;;5.00;99.90;;;;;;5114728;29;20234;-71
2023/03/12 08:45:57;;;;;;;1.80;1.23;;;4.90;99.90;;;;;;5113981;28;20034;-72
2023/03/12 08:48:31;;;;;;;1.60;1.50;;;4.80;99.90;;;;;;5103013;28;20053;-71
2023/03/12 08:51:04;;;;;;;1.90;1.35;;;5.00;99.90;;;;;;5087028;28;20047;-71
2023/03/12 08:53:39;;;;;;;7.10;1.20;;;5.10;99.90;;;;;;5096256;28;20049;-70
2023/03/12 08:56:18;;;;;;;2.65;1.30;;;5.30;99.90;;;;;;5117555;28;20042;-71
2023/03/12 08:58:50;;;;;;;1.30;1.20;;;5.60;99.90;;;;;;5071774;28;20359;-71
2023/03/12 09:01:21;;;;;;;1.13;1.02;;;5.50;99.90;;;;;;5107184;28;20053;-69
2023/03/12 09:03:56;;;;;;;2.47;1.08;;;5.60;99.90;;;;;;5104387;28;20046;-69
2023/03/12 09:06:28;;;;;;;;;;;5.50;99.90;;;;;;5071825;29;20039;-69
2023/03/12 09:09:04;;;;;;;2.97;1.80;;;5.50;99.90;;;;;;5100581;29;19937;-71
2023/03/12 09:11:38;;;;;;;2.83;1.88;;;5.50;99.90;;;;;;5096540;28;20054;-72
2023/03/12 09:14:22;;;;;;;1.73;1.10;;;5.70;99.90;;;;;;5102967;28;20517;-70
2023/03/12 09:16:55;;;;;;;4.05;1.50;;;6.30;99.90;;;;;;5117441;28;20048;-70
2023/03/12 09:19:34;;;;;;;3.50;1.50;;;6.10;99.90;;;;;;5091293;28;20047;-72
2023/03/12 09:22:11;;;;;;;1.25;1.13;;;6.50;99.90;;;;;;5077526;28;20051;-71
2023/03/12 09:24:42;;;;;;;3.95;1.70;;;6.70;99.90;;;;;;5099461;28;20043;-70
2023/03/12 09:27:14;;;;;;;1.92;1.50;;;6.30;99.90;;;;;;5104492;28;20060;-70
2023/03/12 09:29:50;;;;;;;1.23;1.13;;;6.40;99.90;;;;;;5118444;28;20370;-73
2023/03/12 09:32:22;;;;;;;3.08;1.45;;;6.70;99.90;;;;;;5113561;28;20043;-69
2023/03/12 09:34:54;;;;;;;5.25;1.27;;;7.40;99.90;;;;;;5091325;28;20494;-69
2023/03/12 09:37:28;;;;;;;2.15;1.58;;;7.20;99.90;;;;;;5133347;28;20073;-71
2023/03/12 09:40:06;;;;;;;4.63;1.88;;;7.30;99.90;;;;;;5100664;28;20042;-70
2023/03/12 09:42:47;;;;;;;3.17;1.50;;;7.10;99.90;;;;;;5097848;28;20039;-67
2023/03/12 09:45:25;;;;;;;3.67;1.63;;;7.10;99.90;;;;;;5096901;28;20323;-69
2023/03/12 09:48:05;;;;;;;2.00;1.40;;;7.50;99.90;;;;;;5101770;28;20355;-70
2023/03/12 09:50:42;;;;;;;2.00;1.52;;;7.50;99.90;;;;;;5101649;28;20444;-70
2023/03/12 09:53:23;;;;;;;2.53;1.60;;;7.70;99.90;;;;;;5117971;28;20720;-68
2023/03/12 09:55:57;;;;;;;4.38;1.75;;;7.60;99.90;;;;;;5112110;28;20547;-71
2023/03/12 09:58:34;;;;;;;2.75;1.40;;;7.70;99.90;;;;;;5085863;28;20457;-69
2023/03/12 10:01:46;;;;;;;3.33;1.52;;;8.30;99.90;;;;;;5115521;28;20046;-71
2023/03/12 10:04:46;;;;;;;1.80;1.50;;;8.40;99.90;;;;;;5108057;28;20270;-73
2023/03/12 10:07:35;;;;;;;4.78;1.58;;;9.10;99.90;;;;;;5081435;29;20054;-73
2023/03/12 10:10:23;;;;;;;2.78;1.88;;;9.20;99.90;;;;;;5096877;29;20041;-69
2023/03/12 10:13:23;;;;;;;3.42;1.58;;;9.10;99.90;;;;;;5125213;28;20266;-70
2023/03/12 10:16:24;;;;;;;1.48;1.15;;;9.90;99.90;;;;;;5113735;28;20605;-71
2023/03/12 10:19:12;;;;;;;4.63;1.65;;;11.40;99.90;;;;;;5112592;28;20244;-71
2023/03/12 10:22:07;;;;;;;3.70;2.17;;;11.50;99.90;;;;;;5116748;28;20035;-68
2023/03/12 10:25:27;;;;;;;2.10;1.73;;;10.90;99.90;;;;;;5105464;28;20049;-70
2023/03/12 10:28:16;;;;;;;4.28;2.13;;;10.70;99.90;;;;;;5122736;28;20053;-71
2023/03/12 10:30:57;;;;;;;2.20;1.50;;;11.60;99.90;;;;;;5082702;28;20069;-71
2023/03/12 10:33:49;;;;;;;2.35;1.60;;;12.90;99.90;;;;;;5116762;28;20045;-71
2023/03/12 10:36:39;;;;;;;4.90;1.90;;;14.30;99.90;;;;;;5117980;28;20043;-69
2023/03/12 10:39:18;;;;;;;2.03;1.60;;;12.30;99.90;;;;;;5085085;28;20043;-71
2023/03/12 10:41:51;;;;;;;3.08;2.10;;;10.60;99.90;;;;;;5117398;28;20400;-71
2023/03/12 10:44:27;;;;;;;2.05;1.73;;;9.80;99.90;;;;;;5118577;28;20057;-71
2023/03/12 10:47:26;;;;;;;2.42;1.77;;;9.60;99.90;;;;;;5115996;28;20049;-72
2023/03/12 10:50:16;;;;;;;3.35;1.63;;;11.00;99.90;;;;;;5100949;28;20048;-68
2023/03/12 10:52:51;;;;;;;2.58;2.03;;;12.70;99.90;;;;;;5096328;29;20074;-71
2023/03/12 10:55:28;;;;;;;4.57;1.60;;;12.10;99.90;;;;;;5069671;28;20047;-69
2023/03/12 10:58:00;;;;;;;2.92;2.00;;;12.20;99.90;;;;;;5115048;28;20041;-69
2023/03/12 11:00:35;;;;;;;2.13;1.92;;;12.60;99.90;;;;;;5097073;28;20050;-69
2023/03/12 11:03:21;;;;;;;2.63;1.80;;;12.90;99.90;;;;;;5065535;29;20058;-70
2023/03/12 11:06:02;;;;;;;2.80;1.98;;;13.10;99.90;;;;;;5084466;28;20047;-70
2023/03/12 11:08:36;;;;;;;2.45;2.00;;;12.60;99.90;;;;;;5083806;28;20519;-72
2023/03/12 11:11:09;;;;;;;4.53;2.17;;;10.90;99.90;;;;;;5099698;28;20232;-70
2023/03/12 11:13:41;;;;;;;3.95;2.40;;;11.20;99.90;;;;;;5083679;28;20049;-72
2023/03/12 11:16:16;;;;;;;3.38;2.33;;;12.40;99.90;;;;;;5085961;28;20409;-71
2023/03/12 11:19:14;;;;;;;;;;;12.90;99.90;;;;;;5100717;28;20053;-69
2023/03/12 11:21:58;;;;;;;4.90;2.33;;;13.40;99.90;;;;;;5115095;28;19918;-70
2023/03/12 11:24:35;;;;;;;4.63;2.10;;;15.20;99.90;;;;;;5099284;28;20498;-70
2023/03/12 11:27:34;;;;;;;5.05;2.60;;;16.40;1.00;;;;;;5098706;28;20038;-70
2023/03/12 11:30:11;;;;;;;5.47;2.13;;;16.70;1.00;;;;;;5100702;28;20050;-71
2023/03/12 11:32:48;;;;;;;3.35;2.20;;;15.80;99.90;;;;;;5083997;28;20081;-70
2023/03/12 11:35:42;;;;;;;4.25;2.00;;;15.20;99.90;;;;;;5102711;28;20038;-69
2023/03/12 11:38:23;;;;;;;4.68;2.28;;;15.50;99.90;;;;;;5095422;29;20043;-70
2023/03/12 11:41:26;;;;;;;2.75;2.13;;;14.60;96.20;;;;;;5084797;28;20050;-69
2023/03/12 11:44:31;;;;;;;5.43;2.50;;;13.60;90.40;;;;;;5099058;28;20104;-69
2023/03/12 11:47:22;;;;;;;5.70;3.38;;;13.90;99.90;;;;;;5106494;28;20555;-69
2023/03/12 11:50:41;;;;;;;2.88;2.45;;;14.30;99.90;;;;;;5080071;28;20042;-70
2023/03/12 11:53:24;;;;;;;4.07;2.60;;;14.10;99.90;;;;;;5091046;28;20578;-70
2023/03/12 11:56:20;;;;;;;7.32;2.65;;;12.90;99.90;;;;;;5095495;28;20066;-69
2023/03/12 11:59:08;;;;;;;3.30;2.97;;;12.60;99.90;;;;;;5113901;28;20038;-69
2023/03/12 12:02:10;;;;;;;3.17;2.60;;;13.40;1.00;;;;;;5100157;28;20441;-69
2023/03/12 12:04:41;;;;;;;2.65;2.20;;;13.70;99.90;;;;;;5092280;28;20058;-68
2023/03/12 12:07:57;;;;;;;2.05;1.88;;;12.90;99.90;;;;;;5099443;28;20038;-70
2023/03/12 12:10:55;;;;;;;;;;;12.80;99.90;;;;;;5096242;28;20057;-69
2023/03/12 12:14:04;;;;;;;2.63;2.15;;;12.40;99.90;;;;;;5122425;28;19925;-71
2023/03/12 12:17:24;;;;;;;3.70;2.25;;;11.90;15.10;;;;;;5095622;28;20046;-68
2023/03/12 12:20:33;;;;;;;2.45;1.92;;;12.00;14.20;;;;;;5028149;29;20068;-69
2023/03/12 12:23:25;;;;;;;3.22;2.53;;;12.40;1.00;;;;;;5014221;29;20083;-70
2023/03/12 12:26:09;;;;;;;3.83;2.72;;;12.50;1.00;;;;;;5027221;29;20063;-69
2023/03/12 12:29:04;;;;;;;29.15;12.02;;;13.10;14.00;;;;;;4988330;29;20041;-69
2023/03/12 12:31:45;;;;;;;7.10;4.28;;;12.70;99.90;;;;;;5010760;29;20156;-68
2023/03/12 12:34:41;;;;;;;4.70;3.55;;;12.70;99.90;;;;;;5015842;29;20029;-69
2023/03/12 12:38:13;;;;;;;3.20;2.38;;;12.50;99.90;;;;;;5030424;29;20053;-68
2023/03/12 12:40:51;;;;;;;6.82;4.28;;;12.80;99.90;;;;;;4995218;29;20056;-68
2023/03/12 12:43:29;;;;;;;4.55;2.97;;;12.50;99.90;;;;;;5020744;29;20072;-70
2023/03/12 12:46:22;;;;;;;4.55;2.58;;;12.80;99.90;;;;;;5016414;29;20051;-69
2023/03/12 12:49:18;;;;;;;2.17;1.83;;;13.00;99.90;;;;;;5031819;29;20045;-69
2023/03/12 12:52:01;;;;;;;4.28;2.40;;;13.70;99.90;;;;;;5017516;29;20061;-70
2023/03/12 12:54:57;;;;;;;5.53;2.83;;;13.60;99.90;;;;;;5016080;29;20316;-68
2023/03/12 12:57:47;;;;;;;2.55;1.90;;;13.00;99.90;;;;;;5108204;28;20042;-69
2023/03/12 13:00:42;;;;;;;4.82;2.60;;;13.30;99.90;;;;;;5081251;29;20058;-70
2023/03/12 13:03:19;;;;;;;2.67;2.35;;;12.90;99.90;;;;;;5132024;28;20047;-69
2023/03/12 13:06:00;;;;;;;3.17;1.90;;;12.50;99.90;;;;;;5097333;28;20061;-71
2023/03/12 13:08:41;;;;;;;2.42;2.22;;;12.00;99.90;;;;;;5084656;29;20259;-71
2023/03/12 13:11:16;;;;;;;4.50;2.17;;;11.90;99.90;;;;;;5093372;29;20053;-69
2023/03/12 13:14:09;;;;;;;3.30;2.30;;;11.40;99.90;;;;;;5113164;29;20046;-71
2023/03/12 13:16:48;;;;;;;3.70;2.15;;;11.30;99.90;;;;;;5107451;29;20051;-70
2023/03/12 13:19:25;;;;;;;4.05;2.40;;;11.40;99.90;;;;;;5111315;29;20035;-71
2023/03/12 13:22:38;;;;;;;2.78;1.92;;;11.10;99.90;;;;;;5078235;29;20042;-69
2023/03/12 13:25:40;;;;;;;2.80;1.77;;;11.00;99.90;;;;;;5092743;29;20049;-72
2023/03/12 13:28:52;;;;;;;3.58;1.60;;;11.20;99.90;;;;;;5125935;28;20035;-68
2023/03/12 13:31:29;;;;;;;4.57;2.30;;;11.40;99.90;;;;;;5097413;29;20046;-70
2023/03/12 13:34:23;;;;;;;3.65;2.20;;;11.80;99.90;;;;;;5080379;29;20043;-71
2023/03/12 13:37:01;;;;;;;2.80;2.00;;;11.70;99.90;;;;;;5126274;28;20086;-69
2023/03/12 13:39:38;;;;;;;3.85;1.90;;;11.60;99.90;;;;;;5066537;29;20047;-70
2023/03/12 13:42:38;;;;;;;2.08;1.88;;;11.30;99.90;;;;;;5110694;29;20038;-69
2023/03/12 13:46:06;;;;;;;3.08;2.10;;;11.30;99.90;;;;;;5078418;29;20047;-69
2023/03/12 13:48:45;;;;;;;2.42;1.60;;;11.10;99.90;;;;;;5088058;29;20479;-68
2023/03/12 13:51:22;;;;;;;2.55;1.92;;;10.60;99.90;;;;;;5042219;29;20406;-70
2023/03/12 13:54:07;;;;;;;2.13;1.65;;;10.60;99.90;;;;;;5054300;29;20690;-68
2023/03/12 13:56:38;;;;;;;3.65;2.00;;;10.50;99.90;;;;;;5045524;29;20062;-70